Time;durP1;ratioP1;P1;durP2;ratioP2;P2;SDS_P1;SDS_P2;PMS_P1;PMS_P2;Temp;Humidity;BMP_temperature;BMP_pressure;BME280_temperature;BME280_humidity;BME280_pressure;Samples;Min_cycle;Max_cycle;Signal;HPM_P1;HPM_P2
2023/08/22 00:00:25;;;;;;;66.22;34.47;;;;;;;;;;10310906;28;20031;-89
2023/08/22 00:05:26;;;;;;;48.00;26.10;;;;;;;;;;10304139;28;20093;-90
2023/08/22 00:10:27;;;;;;;31.20;19.05;;;;;;;;;;10317074;28;20038;-89
2023/08/22 00:15:28;;;;;;;40.80;25.30;;;;;;;;;;10298805;28;20028;-89
2023/08/22 00:20:30;;;;;;;36.83;25.73;;;;;;;;;;10314178;28;20035;-89
2023/08/22 00:25:31;;;;;;;25.80;17.90;;;;;;;;;;10304813;28;20031;-88
2023/08/22 00:30:32;;;;;;;30.73;19.10;;;;;;;;;;10311572;28;20034;-88
2023/08/22 00:35:33;;;;;;;35.53;21.75;;;;;;;;;;10313553;28;20041;-89
2023/08/22 00:40:34;;;;;;;26.38;17.30;;;;;;;;;;10315051;28;20058;-89
2023/08/22 00:45:36;;;;;;;21.88;15.13;;;;;;;;;;10308308;28;20037;-87
2023/08/22 00:50:37;;;;;;;18.40;12.98;;;;;;;;;;10295690;28;20034;-89
2023/08/22 00:55:38;;;;;;;23.05;13.93;;;;;;;;;;10312745;28;20034;-88
2023/08/22 01:00:39;;;;;;;23.55;15.57;;;;;;;;;;10298167;28;20046;-87
2023/08/22 01:05:43;;;;;;;19.23;13.60;;;;;;;;;;10286505;28;20069;-89
2023/08/22 01:10:46;;;;;;;36.08;22.70;;;;;;;;;;10310148;28;20037;-87
2023/08/22 01:15:48;;;;;;;36.22;21.55;;;;;;;;;;10312001;28;20636;-91
2023/08/22 01:20:49;;;;;;;29.05;17.48;;;;;;;;;;10319261;28;20122;-89
2023/08/22 01:25:50;;;;;;;20.23;15.45;;;;;;;;;;10314474;28;20137;-89
2023/08/22 01:30:59;;;;;;;35.70;21.73;;;;;;;;;;10292751;28;20370;-88
2023/08/22 01:36:01;;;;;;;22.58;16.42;;;;;;;;;;10301183;28;20563;-87
2023/08/22 01:41:02;;;;;;;21.75;15.93;;;;;;;;;;10308545;28;20067;-89
2023/08/22 01:46:05;;;;;;;22.95;16.50;;;;;;;;;;10284384;28;20380;-89
2023/08/22 01:51:06;;;;;;;20.60;14.88;;;;;;;;;;10322730;28;20125;-89
2023/08/22 01:56:07;;;;;;;28.42;20.25;;;;;;;;;;10333084;28;20477;-89
2023/08/22 02:01:09;;;;;;;24.13;17.63;;;;;;;;;;10292500;28;20034;-88
2023/08/22 02:06:10;;;;;;;32.78;21.23;;;;;;;;;;10318237;28;20080;-88
2023/08/22 02:11:11;;;;;;;27.90;19.20;;;;;;;;;;10332758;28;20460;-88
2023/08/22 02:16:12;;;;;;;22.23;16.48;;;;;;;;;;10311512;28;20037;-88
2023/08/22 02:21:14;;;;;;;25.42;16.55;;;;;;;;;;10311569;28;20080;-89
2023/08/22 02:26:16;;;;;;;22.17;16.02;;;;;;;;;;10319432;28;20041;-88
2023/08/22 02:31:17;;;;;;;21.25;15.55;;;;;;;;;;10316906;28;20026;-91
2023/08/22 02:36:18;;;;;;;22.85;16.10;;;;;;;;;;10317626;28;20046;-90
2023/08/22 02:41:19;;;;;;;20.75;15.63;;;;;;;;;;10317755;28;20041;-89
2023/08/22 02:46:20;;;;;;;19.35;14.07;;;;;;;;;;10296120;28;20054;-87
2023/08/22 02:51:21;;;;;;;20.88;15.85;;;;;;;;;;10315919;28;20031;-88
2023/08/22 02:56:22;;;;;;;24.23;15.73;;;;;;;;;;10310363;28;20517;-90
2023/08/22 03:01:23;;;;;;;26.15;15.98;;;;;;;;;;10309601;28;20088;-89
2023/08/22 03:06:24;;;;;;;21.30;16.15;;;;;;;;;;10308163;28;20078;-89
2023/08/22 03:11:25;;;;;;;23.23;15.65;;;;;;;;;;10307588;28;20030;-87
2023/08/22 03:16:27;;;;;;;23.23;16.40;;;;;;;;;;10299448;28;20034;-88
2023/08/22 03:21:28;;;;;;;25.20;17.25;;;;;;;;;;10313616;28;20482;-90
2023/08/22 03:26:29;;;;;;;42.33;24.58;;;;;;;;;;10318962;28;20022;-90
2023/08/22 03:31:30;;;;;;;22.15;15.63;;;;;;;;;;10321540;28;20057;-89
2023/08/22 03:36:31;;;;;;;44.08;26.00;;;;;;;;;;10307511;28;20449;-90
2023/08/22 03:41:38;;;;;;;38.13;22.63;;;;;;;;;;10281090;28;20087;-91
2023/08/22 03:46:42;;;;;;;88.70;44.78;;;;;;;;;;10294732;28;20081;-92
2023/08/22 03:51:43;;;;;;;118.32;61.00;;;;;;;;;;10308173;28;20063;-87
2023/08/22 03:56:45;;;;;;;96.85;51.28;;;;;;;;;;10310243;28;20129;-88
2023/08/22 04:01:46;;;;;;;44.80;25.88;;;;;;;;;;10310120;28;20066;-87
2023/08/22 04:06:47;;;;;;;37.25;22.63;;;;;;;;;;10311406;28;20473;-86
2023/08/22 04:11:48;;;;;;;29.58;19.45;;;;;;;;;;10313204;28;20027;-86
2023/08/22 04:16:49;;;;;;;27.88;19.40;;;;;;;;;;10314109;28;20095;-89
2023/08/22 04:21:50;;;;;;;26.10;18.75;;;;;;;;;;10304805;28;20026;-87
2023/08/22 04:26:51;;;;;;;26.95;17.90;;;;;;;;;;10300826;28;20082;-86
2023/08/22 04:31:52;;;;;;;27.55;20.10;;;;;;;;;;10292525;28;20043;-87
2023/08/22 04:36:53;;;;;;;31.20;19.98;;;;;;;;;;10290796;28;20066;-85
2023/08/22 04:41:54;;;;;;;28.60;19.58;;;;;;;;;;10303330;28;20080;-85
2023/08/22 04:46:55;;;;;;;26.38;19.08;;;;;;;;;;10303302;28;20046;-87
2023/08/22 04:51:56;;;;;;;25.38;18.13;;;;;;;;;;10290161;28;20520;-85
2023/08/22 04:56:57;;;;;;;25.20;19.20;;;;;;;;;;10309945;28;20031;-85
2023/08/22 05:01:58;;;;;;;24.13;17.77;;;;;;;;;;10323500;28;20031;-87
2023/08/22 05:06:59;;;;;;;23.90;17.42;;;;;;;;;;10313403;28;20046;-86
2023/08/22 05:12:00;;;;;;;22.15;16.73;;;;;;;;;;10299672;28;20031;-88
2023/08/22 05:17:01;;;;;;;20.65;15.93;;;;;;;;;;10310082;28;20046;-88
2023/08/22 05:22:03;;;;;;;20.02;15.27;;;;;;;;;;10288565;28;20058;-86
2023/08/22 05:27:04;;;;;;;44.20;25.50;;;;;;;;;;10307438;28;20038;-88
2023/08/22 05:32:05;;;;;;;31.95;21.35;;;;;;;;;;10298606;28;20030;-87
2023/08/22 05:37:06;;;;;;;26.02;16.77;;;;;;;;;;10297603;28;20049;-87
2023/08/22 05:42:07;;;;;;;18.48;13.77;;;;;;;;;;10319847;28;20405;-87
2023/08/22 05:47:09;;;;;;;22.05;13.68;;;;;;;;;;10306717;28;20038;-88
2023/08/22 05:52:10;;;;;;;18.73;13.40;;;;;;;;;;10303507;28;20534;-91
2023/08/22 05:57:11;;;;;;;18.20;13.32;;;;;;;;;;10295646;28;20026;-87
2023/08/22 06:02:12;;;;;;;18.77;13.05;;;;;;;;;;10316254;28;20121;-87
2023/08/22 06:07:13;;;;;;;16.70;12.70;;;;;;;;;;10306005;28;20412;-88
2023/08/22 06:12:14;;;;;;;16.85;12.05;;;;;;;;;;10320095;28;20029;-87
2023/08/22 06:17:15;;;;;;;18.88;12.90;;;;;;;;;;10319363;28;20119;-88
2023/08/22 06:22:16;;;;;;;16.27;11.52;;;;;;;;;;10318441;28;20031;-88
2023/08/22 06:27:17;;;;;;;19.45;11.95;;;;;;;;;;10318187;28;20496;-87
2023/08/22 06:32:21;;;;;;;14.70;9.93;;;;;;;;;;10318695;28;20033;-89
2023/08/22 06:37:22;;;;;;;15.88;10.77;;;;;;;;;;10318066;28;20550;-87
2023/08/22 06:42:23;;;;;;;19.00;10.45;;;;;;;;;;10318677;28;20026;-87
2023/08/22 06:47:24;;;;;;;18.48;10.18;;;;;;;;;;10318105;28;20029;-88
2023/08/22 06:52:25;;;;;;;22.10;10.50;;;;;;;;;;10317515;28;20026;-89
2023/08/22 06:57:26;;;;;;;22.23;13.27;;;;;;;;;;10317947;28;20024;-87
2023/08/22 07:02:27;;;;;;;21.95;12.73;;;;;;;;;;10318840;28;20501;-90
2023/08/22 07:07:28;;;;;;;22.35;11.93;;;;;;;;;;10317602;28;20098;-89
2023/08/22 07:12:29;;;;;;;20.80;12.15;;;;;;;;;;10316740;28;20137;-87
2023/08/22 07:17:30;;;;;;;20.42;12.00;;;;;;;;;;10316671;28;20478;-90
2023/08/22 07:22:36;;;;;;;16.63;9.57;;;;;;;;;;10317575;28;20505;-88
2023/08/22 07:27:37;;;;;;;16.63;9.70;;;;;;;;;;10316689;28;20049;-88
2023/08/22 07:32:38;;;;;;;19.52;7.95;;;;;;;;;;10316569;28;20022;-88
2023/08/22 07:37:39;;;;;;;12.80;7.65;;;;;;;;;;10316147;28;20538;-88
2023/08/22 07:42:40;;;;;;;16.70;8.07;;;;;;;;;;10316873;28;20038;-89
2023/08/22 07:47:41;;;;;;;15.52;8.40;;;;;;;;;;10296503;28;20041;-90
2023/08/22 07:52:42;;;;;;;12.15;7.22;;;;;;;;;;10318720;28;20038;-89
2023/08/22 07:57:43;;;;;;;9.73;6.75;;;;;;;;;;10316067;28;20037;-91
2023/08/22 08:02:45;;;;;;;10.88;7.95;;;;;;;;;;10303069;28;20405;-88
2023/08/22 08:07:46;;;;;;;11.13;8.00;;;;;;;;;;10309830;28;20046;-89
2023/08/22 08:12:47;;;;;;;12.13;7.90;;;;;;;;;;10315198;28;20489;-89
2023/08/22 08:17:48;;;;;;;11.32;7.85;;;;;;;;;;10311738;28;20114;-88
2023/08/22 08:22:49;;;;;;;10.38;7.25;;;;;;;;;;10289845;28;20042;-88
2023/08/22 08:27:50;;;;;;;9.13;7.00;;;;;;;;;;10305168;28;20046;-88
2023/08/22 08:32:51;;;;;;;12.13;8.00;;;;;;;;;;10306240;28;20038;-89
2023/08/22 08:37:53;;;;;;;15.73;7.72;;;;;;;;;;10303823;28;20042;-89
2023/08/22 08:42:55;;;;;;;12.02;7.20;;;;;;;;;;10300743;28;20091;-89
2023/08/22 08:48:00;;;;;;;11.75;6.68;;;;;;;;;;10300569;28;20039;-87
2023/08/22 08:53:02;;;;;;;8.50;5.65;;;;;;;;;;10314208;28;20041;-86
2023/08/22 08:58:03;;;;;;;8.77;5.63;;;;;;;;;;10305566;28;20147;-86
2023/08/22 09:03:05;;;;;;;8.43;5.32;;;;;;;;;;10312242;28;20054;-86
2023/08/22 09:08:17;;;;;;;11.18;5.28;;;;;;;;;;10319390;28;20042;-86
2023/08/22 09:13:25;;;;;;;8.27;5.20;;;;;;;;;;10320419;28;20030;-86
2023/08/22 09:18:27;;;;;;;10.63;6.68;;;;;;;;;;10314407;28;20081;-87
2023/08/22 09:23:28;;;;;;;7.22;5.20;;;;;;;;;;10318616;28;20838;-86
2023/08/22 09:28:29;;;;;;;8.55;6.20;;;;;;;;;;10317204;28;20035;-88
2023/08/22 09:33:44;;;;;;;8.73;5.90;;;;;;;;;;10314683;28;20064;-87
2023/08/22 09:38:55;;;;;;;8.98;6.05;;;;;;;;;;10301898;28;20034;-88
2023/08/22 09:44:03;;;;;;;7.53;4.57;;;;;;;;;;10309762;28;20077;-87
2023/08/22 09:49:04;;;;;;;6.50;4.63;;;;;;;;;;10319402;28;20034;-87
2023/08/22 09:54:06;;;;;;;11.23;4.80;;;;;;;;;;10306470;28;20034;-87
2023/08/22 09:59:07;;;;;;;9.82;5.05;;;;;;;;;;10306118;28;20420;-87
2023/08/22 10:04:09;;;;;;;8.32;5.60;;;;;;;;;;10300565;28;20128;-87
2023/08/22 10:09:11;;;;;;;11.05;5.80;;;;;;;;;;10306380;28;20030;-88
2023/08/22 10:14:31;;;;;;;9.63;6.18;;;;;;;;;;10312508;28;20095;-87
2023/08/22 10:19:32;;;;;;;10.73;5.95;;;;;;;;;;10302605;28;20035;-86
2023/08/22 10:24:34;;;;;;;6.35;4.40;;;;;;;;;;10317974;28;20608;-86
2023/08/22 10:29:45;;;;;;;6.57;4.93;;;;;;;;;;10318101;28;20386;-87
2023/08/22 10:34:46;;;;;;;7.90;4.10;;;;;;;;;;10312256;28;20114;-88
2023/08/22 10:39:48;;;;;;;7.90;4.80;;;;;;;;;;10318274;28;20547;-86
2023/08/22 10:44:54;;;;;;;6.95;4.05;;;;;;;;;;10315663;28;20034;-87
2023/08/22 10:49:56;;;;;;;4.70;3.22;;;;;;;;;;10315635;28;20042;-87
2023/08/22 10:55:02;;;;;;;4.40;3.53;;;;;;;;;;10306395;28;20070;-88
2023/08/22 11:00:19;;;;;;;9.27;4.05;;;;;;;;;;10304522;28;20023;-87
2023/08/22 11:05:20;;;;;;;4.60;2.92;;;;;;;;;;10304957;28;20051;-88
2023/08/22 11:10:22;;;;;;;7.55;3.70;;;;;;;;;;10300739;28;20054;-87
2023/08/22 11:15:23;;;;;;;9.48;4.22;;;;;;;;;;10308454;28;20031;-87
2023/08/22 11:20:24;;;;;;;11.55;4.10;;;;;;;;;;10298744;28;20473;-88
2023/08/22 11:25:26;;;;;;;5.15;3.72;;;;;;;;;;10312179;28;20116;-93
2023/08/22 11:30:27;;;;;;;5.28;3.78;;;;;;;;;;10307741;28;20103;-88
2023/08/22 11:35:31;;;;;;;6.90;4.10;;;;;;;;;;10307262;28;20069;-89
2023/08/22 11:40:33;;;;;;;5.75;3.47;;;;;;;;;;10293382;23;20113;-88
2023/08/22 11:45:34;;;;;;;4.95;4.00;;;;;;;;;;10181187;28;20081;-88
2023/08/22 11:50:36;;;;;;;8.38;4.63;;;;;;;;;;10166039;28;20134;-87
2023/08/22 11:55:40;;;;;;;5.40;3.88;;;;;;;;;;10188057;28;20055;-87
2023/08/22 12:00:41;;;;;;;5.85;3.60;;;;;;;;;;10184483;29;20499;-88
2023/08/22 12:05:45;;;;;;;5.20;3.95;;;;;;;;;;10191143;28;20035;-86
2023/08/22 12:10:48;;;;;;;6.25;4.00;;;;;;;;;;10196749;28;20632;-87
2023/08/22 12:15:50;;;;;;;6.28;4.18;;;;;;;;;;10187943;29;20471;-91
2023/08/22 12:20:51;;;;;;;5.50;3.75;;;;;;;;;;10183722;28;20032;-89
2023/08/22 12:25:52;;;;;;;5.80;3.72;;;;;;;;;;10179629;28;20050;-89
2023/08/22 12:30:54;;;;;;;4.07;3.22;;;;;;;;;;10164163;28;20055;-86
2023/08/22 12:35:55;;;;;;;4.57;3.70;;;;;;;;;;10195447;28;20032;-84
2023/08/22 12:40:59;;;;;;;6.50;4.28;;;;;;;;;;10196425;29;20137;-86
2023/08/22 12:46:00;;;;;;;7.20;4.72;;;;;;;;;;10201880;28;20044;-88
2023/08/22 12:51:02;;;;;;;5.30;3.85;;;;;;;;;;10188781;28;20031;-86
2023/08/22 12:56:03;;;;;;;48.60;29.95;;;;;;;;;;10176899;29;20644;-86
2023/08/22 13:01:04;;;;;;;12.20;7.70;;;;;;;;;;10178841;28;20036;-86
2023/08/22 13:06:05;;;;;;;6.45;4.95;;;;;;;;;;10177436;28;20059;-87
2023/08/22 13:11:06;;;;;;;6.40;4.65;;;;;;;;;;10165134;28;20085;-87
2023/08/22 13:16:07;;;;;;;6.05;4.05;;;;;;;;;;10261706;28;20028;-88
2023/08/22 13:21:08;;;;;;;6.82;4.40;;;;;;;;;;10166041;28;20036;-88
2023/08/22 13:26:09;;;;;;;8.45;5.18;;;;;;;;;;10217798;28;20105;-87
2023/08/22 13:31:11;;;;;;;7.50;3.95;;;;;;;;;;10176695;29;20035;-88
2023/08/22 13:36:12;;;;;;;10.93;6.53;;;;;;;;;;10175973;28;20097;-86
2023/08/22 13:41:13;;;;;;;8.52;5.00;;;;;;;;;;10194893;29;20135;-87
2023/08/22 13:46:14;;;;;;;6.32;4.55;;;;;;;;;;10200905;29;20039;-88
2023/08/22 13:51:16;;;;;;;6.38;4.70;;;;;;;;;;10183638;28;20561;-88
2023/08/22 13:56:19;;;;;;;6.32;4.65;;;;;;;;;;10201768;28;20114;-87
2023/08/22 14:01:20;;;;;;;42.13;16.92;;;;;;;;;;10199806;28;20038;-87
2023/08/22 14:06:21;;;;;;;8.75;5.30;;;;;;;;;;10182697;28;20048;-90
2023/08/22 14:11:22;;;;;;;8.65;4.95;;;;;;;;;;10181170;28;20495;-88
2023/08/22 14:16:23;;;;;;;7.65;5.05;;;;;;;;;;10183747;29;20044;-88
2023/08/22 14:21:24;;;;;;;7.03;4.70;;;;;;;;;;10174522;28;20089;-87
2023/08/22 14:26:25;;;;;;;10.27;7.05;;;;;;;;;;10178465;29;20131;-87
2023/08/22 14:31:27;;;;;;;8.30;5.38;;;;;;;;;;10181082;28;20043;-87
2023/08/22 14:36:28;;;;;;;8.73;5.43;;;;;;;;;;10182285;28;20047;-88
2023/08/22 14:41:30;;;;;;;6.95;4.78;;;;;;;;;;10181518;28;20062;-89
2023/08/22 14:46:31;;;;;;;8.13;5.57;;;;;;;;;;10178218;29;20471;-90
2023/08/22 14:51:32;;;;;;;10.02;5.38;;;;;;;;;;10170589;28;20487;-86
2023/08/22 14:56:33;;;;;;;7.72;5.13;;;;;;;;;;10187684;28;20121;-87
2023/08/22 15:01:34;;;;;;;9.07;5.25;;;;;;;;;;10193222;28;20028;-90
2023/08/22 15:06:35;;;;;;;7.20;5.35;;;;;;;;;;10171641;28;20043;-89
2023/08/22 15:11:37;;;;;;;7.82;5.65;;;;;;;;;;10196960;28;20036;-89
2023/08/22 15:16:38;;;;;;;7.20;5.22;;;;;;;;;;10173729;28;20023;-87
2023/08/22 15:21:39;;;;;;;5.72;4.75;;;;;;;;;;10175458;28;20465;-84
2023/08/22 15:26:42;;;;;;;6.55;5.65;;;;;;;;;;10180808;28;20031;-88
2023/08/22 15:31:43;;;;;;;9.30;5.50;;;;;;;;;;10173477;28;20043;-88
2023/08/22 15:36:44;;;;;;;9.23;5.25;;;;;;;;;;10176126;28;20104;-87
2023/08/22 15:41:45;;;;;;;9.80;5.70;;;;;;;;;;10162305;29;20060;-89
2023/08/22 15:52:28;;;;;;;9.00;5.80;;;;;;;;;;10980066;23;20105;-85
2023/08/22 15:57:29;;;;;;;9.20;5.75;;;;;;;;;;10373537;28;20083;-84
2023/08/22 16:02:30;;;;;;;10.50;5.72;;;;;;;;;;10364258;28;20163;-87
2023/08/22 16:07:31;;;;;;;10.15;5.75;;;;;;;;;;10345957;28;20121;-86
2023/08/22 16:12:32;;;;;;;9.40;6.20;;;;;;;;;;10325391;28;20026;-86
2023/08/22 16:17:33;;;;;;;10.85;5.95;;;;;;;;;;10347261;28;20030;-86
2023/08/22 16:22:34;;;;;;;9.85;5.90;;;;;;;;;;10330466;28;20022;-87
2023/08/22 16:27:35;;;;;;;9.75;6.20;;;;;;;;;;10316355;28;20042;-87
2023/08/22 16:32:36;;;;;;;9.85;6.20;;;;;;;;;;10341776;28;20036;-87
2023/08/22 16:37:40;;;;;;;8.48;5.60;;;;;;;;;;10330244;28;20033;-87
2023/08/22 16:42:41;;;;;;;8.43;6.10;;;;;;;;;;10326632;28;20496;-88
2023/08/22 16:47:42;;;;;;;9.35;5.50;;;;;;;;;;10334726;28;20038;-88
2023/08/22 16:52:43;;;;;;;9.13;5.78;;;;;;;;;;10316575;28;20054;-87
2023/08/22 16:57:45;;;;;;;8.57;5.28;;;;;;;;;;10326139;28;20030;-90
2023/08/22 17:02:46;;;;;;;9.00;5.45;;;;;;;;;;10328414;28;20035;-87
2023/08/22 17:07:47;;;;;;;7.03;5.25;;;;;;;;;;10326223;28;20069;-88
2023/08/22 17:12:52;;;;;;;9.23;5.53;;;;;;;;;;10342966;28;20094;-88
2023/08/22 17:17:53;;;;;;;8.25;5.32;;;;;;;;;;10331388;23;20085;-88
2023/08/22 17:22:54;;;;;;;7.32;5.20;;;;;;;;;;10327871;28;20030;-87
2023/08/22 17:27:55;;;;;;;8.35;5.93;;;;;;;;;;10339238;28;20505;-87
2023/08/22 17:32:56;;;;;;;10.07;6.15;;;;;;;;;;10384885;28;20034;-89
2023/08/22 17:37:57;;;;;;;7.03;5.85;;;;;;;;;;10324414;22;20543;-88
2023/08/22 17:42:58;;;;;;;9.90;6.63;;;;;;;;;;10285222;28;20027;-87
2023/08/22 17:48:01;;;;;;;10.00;6.28;;;;;;;;;;10268548;28;20046;-87
2023/08/22 17:53:02;;;;;;;11.00;7.45;;;;;;;;;;10351086;28;20467;-85
2023/08/22 17:58:03;;;;;;;11.30;6.43;;;;;;;;;;10338726;28;20041;-88
2023/08/22 18:03:04;;;;;;;10.40;7.15;;;;;;;;;;10271427;28;20039;-87
2023/08/22 18:08:06;;;;;;;12.00;6.43;;;;;;;;;;10296457;28;20063;-89
2023/08/22 18:13:07;;;;;;;15.32;9.23;;;;;;;;;;10304472;28;20481;-90
2023/08/22 18:18:08;;;;;;;13.75;8.10;;;;;;;;;;10301904;28;20033;-87
2023/08/22 18:23:09;;;;;;;13.57;8.95;;;;;;;;;;10304507;28;20053;-88
2023/08/22 18:28:10;;;;;;;10.23;7.47;;;;;;;;;;10304359;28;20042;-88
2023/08/22 18:33:11;;;;;;;11.73;7.88;;;;;;;;;;10300754;28;20037;-86
2023/08/22 18:43:52;;;;;;;11.30;8.00;;;;;;;;;;10320260;28;20521;-88
2023/08/22 18:48:54;;;;;;;13.45;8.50;;;;;;;;;;10333714;28;20042;-85
2023/08/22 18:53:55;;;;;;;9.93;7.15;;;;;;;;;;10307152;28;20037;-87
2023/08/22 18:58:58;;;;;;;10.10;6.88;;;;;;;;;;10296146;28;20034;-87
2023/08/22 19:03:59;;;;;;;9.27;5.85;;;;;;;;;;10300265;28;20499;-85
2023/08/22 19:09:00;;;;;;;7.40;6.00;;;;;;;;;;10299641;28;20550;-87
2023/08/22 19:14:02;;;;;;;9.27;5.95;;;;;;;;;;10302467;28;20031;-86
2023/08/22 19:19:03;;;;;;;7.45;5.07;;;;;;;;;;10318765;28;20031;-86
2023/08/22 19:24:04;;;;;;;9.25;5.20;;;;;;;;;;10301069;28;20035;-87
2023/08/22 19:29:05;;;;;;;6.10;4.88;;;;;;;;;;10301256;28;20050;-87
2023/08/22 19:34:06;;;;;;;10.38;5.30;;;;;;;;;;10300287;28;20062;-86
2023/08/22 19:39:07;;;;;;;7.32;4.75;;;;;;;;;;10300239;28;20062;-87
2023/08/22 19:44:08;;;;;;;5.82;5.05;;;;;;;;;;10291690;28;20034;-86
2023/08/22 19:49:10;;;;;;;9.13;5.22;;;;;;;;;;10292780;28;20046;-87
2023/08/22 19:54:11;;;;;;;7.50;5.18;;;;;;;;;;10299442;28;20038;-91
2023/08/22 19:59:32;;;;;;;7.85;5.53;;;;;;;;;;10309699;28;20353;-90
2023/08/22 20:04:39;;;;;;;7.13;5.13;;;;;;;;;;10314676;28;20759;-86
2023/08/22 20:09:40;;;;;;;10.23;6.65;;;;;;;;;;10298762;28;20072;-87
2023/08/22 20:14:42;;;;;;;12.73;8.30;;;;;;;;;;10299416;28;20035;-89
2023/08/22 20:19:43;;;;;;;9.52;6.55;;;;;;;;;;10289017;23;20165;-86
2023/08/22 20:24:46;;;;;;;10.95;6.78;;;;;;;;;;10273821;28;20069;-85
2023/08/22 20:29:47;;;;;;;8.25;5.72;;;;;;;;;;10268782;28;20187;-86
2023/08/22 20:34:52;;;;;;;7.35;5.40;;;;;;;;;;10274367;28;20103;-86
2023/08/22 20:39:53;;;;;;;;;;;;;;;;;;10276364;28;20556;-85
2023/08/22 20:44:54;;;;;;;9.63;6.45;;;;;;;;;;10272043;28;19917;-88
2023/08/22 20:49:56;;;;;;;10.13;6.57;;;;;;;;;;10275737;28;20046;-85
2023/08/22 20:54:57;;;;;;;10.70;6.82;;;;;;;;;;10274518;28;20489;-87
2023/08/22 20:59:58;;;;;;;9.75;6.13;;;;;;;;;;10274152;28;20125;-87
2023/08/22 21:04:59;;;;;;;8.93;6.13;;;;;;;;;;10273416;28;20027;-86
2023/08/22 21:10:00;;;;;;;10.18;6.90;;;;;;;;;;10268296;28;20042;-88
2023/08/22 21:15:04;;;;;;;9.52;6.47;;;;;;;;;;10267552;28;20095;-87
2023/08/22 21:20:08;;;;;;;11.03;7.20;;;;;;;;;;10266921;28;20119;-87
2023/08/22 21:25:10;;;;;;;11.00;7.10;;;;;;;;;;10272632;28;20125;-85
2023/08/22 21:30:12;;;;;;;9.23;6.03;;;;;;;;;;10258852;28;20035;-86
2023/08/22 21:35:13;;;;;;;7.30;5.55;;;;;;;;;;10272993;28;20042;-85
2023/08/22 21:40:14;;;;;;;11.98;6.50;;;;;;;;;;10264451;28;20035;-85
2023/08/22 21:45:16;;;;;;;9.15;6.22;;;;;;;;;;10270797;28;20085;-85
2023/08/22 21:50:17;;;;;;;8.95;6.18;;;;;;;;;;10263929;28;20039;-86
2023/08/22 21:55:18;;;;;;;8.02;5.70;;;;;;;;;;10272976;28;20096;-86
2023/08/22 22:00:20;;;;;;;10.15;6.07;;;;;;;;;;10261573;28;20027;-87
2023/08/22 22:05:24;;;;;;;11.85;6.25;;;;;;;;;;10267473;28;20054;-85
2023/08/22 22:10:26;;;;;;;10.65;6.65;;;;;;;;;;10274561;28;20045;-86
2023/08/22 22:15:27;;;;;;;9.55;6.90;;;;;;;;;;10277760;28;20035;-88
2023/08/22 22:20:29;;;;;;;10.18;6.82;;;;;;;;;;10277769;28;20778;-86
2023/08/22 22:25:30;;;;;;;8.98;7.00;;;;;;;;;;10339476;28;20095;-88
2023/08/22 22:30:31;;;;;;;8.70;6.60;;;;;;;;;;10341272;28;20043;-86
2023/08/22 22:35:32;;;;;;;9.75;7.32;;;;;;;;;;10339801;28;20031;-88
2023/08/22 22:40:37;;;;;;;12.75;8.00;;;;;;;;;;10336480;28;20041;-86
2023/08/22 22:45:42;;;;;;;11.77;8.38;;;;;;;;;;10278638;28;20805;-87
2023/08/22 22:50:43;;;;;;;11.60;7.78;;;;;;;;;;10278398;28;20062;-84
2023/08/22 22:55:44;;;;;;;13.75;8.82;;;;;;;;;;10336370;28;20045;-86
2023/08/22 23:00:45;;;;;;;16.85;10.55;;;;;;;;;;10334377;28;20038;-85
2023/08/22 23:05:46;;;;;;;12.35;9.18;;;;;;;;;;10345032;28;20402;-87
2023/08/22 23:10:47;;;;;;;17.75;9.85;;;;;;;;;;10272356;28;20042;-86
2023/08/22 23:15:48;;;;;;;13.38;9.95;;;;;;;;;;10273264;28;20390;-85
2023/08/22 23:20:49;;;;;;;11.00;8.55;;;;;;;;;;10278578;28;20042;-85
2023/08/22 23:25:59;;;;;;;14.50;9.45;;;;;;;;;;10336726;28;20041;-85
2023/08/22 23:31:00;;;;;;;10.80;8.98;;;;;;;;;;10342093;28;20119;-84
2023/08/22 23:36:01;;;;;;;15.95;9.88;;;;;;;;;;10344052;28;20129;-87
2023/08/22 23:41:02;;;;;;;12.38;9.05;;;;;;;;;;10343189;28;20087;-85
2023/08/22 23:46:03;;;;;;;12.02;10.02;;;;;;;;;;10268969;28;20554;-85
2023/08/22 23:51:04;;;;;;;13.45;9.48;;;;;;;;;;10343374;28;20035;-86
2023/08/22 23:56:05;;;;;;;13.35;9.25;;;;;;;;;;10342660;28;20035;-85
